Airfield :







YOU CAN JOIN US ON...

 
LOGIN :

Register | Disclaimer

   EN    FR    IT 

 









Legend :    VFR   Marginal VFR   IFR   Intensive IFR   Very Intensive IFR
Visi :
Ceiling :
>= 8 km
>= 3000ft
5 to 8 km
1000 to 3000 ft
1500m to 5 km
500 to 1000 ft
800 to 1500m
200 to 500 ft
< 800m
< 200 ft
Symbols :   Thunderstorms  Fog  Heavy snow  Heavy precipitations  Wind > 20 kt






- Airport Elevation : 180 ft
- IATA code : YZV


CYZV - Sept-Iles

CURRENT METAR :
  • 161800Z 21012G17KT 30SM FEW042 FEW090 SCT200 17/10 A3015 RMK CU2AC1CI2 AC TR SLP213 DENSITY ALT 200FT

EXPIRED METARs :
  • 161700Z 27009G16KT 30SM FEW040 FEW090 FEW200 18/08 A3014 RMK CU2AC1CI1 AC TR CI TR SLP208 DENSITY ALT 400FT
  • 161600Z 29013G19KT 30SM SCT030 SCT090 BKN240 18/08 A3012 RMK CU3AC1CI3 AC TR SLP203 DENSITY ALT 300FT

TAF TAF CYZV
Valid from the 16 at 18:00 until the 17 at 18:00 UTC


161738Z 1618/1718 29010G20KT P6SM SCT030
BECMG 1619/1621 22008KT
BECMG 1622/1624 VRB03KT
FM170800 05005KT P6SM FEW002
PROB30 1708/1712 2SM BR
BECMG 1712/1714 20012G22KT
FM171700 20015G25KT P6SM SKC RMK NXT FCST BY 170000Z
CZUL FIR / North America



MET'MAP, your aeronautical weather chart ! - Copyright ORBIFLY December 2007 - Disclaimer

ORBIFLY MET'MAP TEAM :

Programming & Development : Alexandra Zaïnal
Concept & original design : Baudouin d'Aumeries
Assistance for programming : Marc-Olivier Méhu
Technical & hardware support : Manuel Goepfert

Contact : metmap@orbifly.com




SOURCES & CREDITS :

   NOAA